sensor_id;sensor_type;location;lat;lon;timestamp;temperature;humidity
10300;DHT22;5195;48.562;9.192;2024-03-02T00:01:56;9.00;56.20
10300;DHT22;5195;48.562;9.192;2024-03-02T00:04:32;9.00;56.20
10300;DHT22;5195;48.562;9.192;2024-03-02T00:07:08;9.50;55.70
10300;DHT22;5195;48.562;9.192;2024-03-02T00:09:44;9.50;55.70
10300;DHT22;5195;48.562;9.192;2024-03-02T00:12:20;9.50;55.40
10300;DHT22;5195;48.562;9.192;2024-03-02T00:14:57;9.30;55.60
10300;DHT22;5195;48.562;9.192;2024-03-02T00:17:35;9.30;56.00
10300;DHT22;5195;48.562;9.192;2024-03-02T00:20:10;9.30;56.00
10300;DHT22;5195;48.562;9.192;2024-03-02T00:22:46;9.60;55.30
10300;DHT22;5195;48.562;9.192;2024-03-02T00:25:22;9.40;56.00
10300;DHT22;5195;48.562;9.192;2024-03-02T00:27:59;9.40;55.40
10300;DHT22;5195;48.562;9.192;2024-03-02T00:30:54;9.20;55.80
10300;DHT22;5195;48.562;9.192;2024-03-02T00:33:32;9.30;55.70
10300;DHT22;5195;48.562;9.192;2024-03-02T00:36:07;9.70;55.00
10300;DHT22;5195;48.562;9.192;2024-03-02T00:38:46;9.60;54.70
10300;DHT22;5195;48.562;9.192;2024-03-02T00:41:25;9.70;54.70
10300;DHT22;5195;48.562;9.192;2024-03-02T00:44:01;9.50;54.60
10300;DHT22;5195;48.562;9.192;2024-03-02T00:46:37;9.80;54.10
10300;DHT22;5195;48.562;9.192;2024-03-02T00:49:20;9.80;54.00
10300;DHT22;5195;48.562;9.192;2024-03-02T00:51:57;9.60;54.00
10300;DHT22;5195;48.562;9.192;2024-03-02T00:54:33;9.80;53.90
10300;DHT22;5195;48.562;9.192;2024-03-02T00:57:10;9.80;53.80
10300;DHT22;5195;48.562;9.192;2024-03-02T00:59:45;10.00;52.50
10300;DHT22;5195;48.562;9.192;2024-03-02T01:02:20;10.10;52.20
10300;DHT22;5195;48.562;9.192;2024-03-02T01:04:56;10.20;52.00
10300;DHT22;5195;48.562;9.192;2024-03-02T01:07:32;10.30;51.90
10300;DHT22;5195;48.562;9.192;2024-03-02T01:10:08;9.60;53.80
10300;DHT22;5195;48.562;9.192;2024-03-02T01:12:46;9.60;54.10
10300;DHT22;5195;48.562;9.192;2024-03-02T01:15:22;9.80;53.80
10300;DHT22;5195;48.562;9.192;2024-03-02T01:17:58;9.80;53.70
10300;DHT22;5195;48.562;9.192;2024-03-02T01:20:35;9.90;53.10
10300;DHT22;5195;48.562;9.192;2024-03-02T01:23:11;10.10;52.00
10300;DHT22;5195;48.562;9.192;2024-03-02T01:25:52;10.10;51.40
10300;DHT22;5195;48.562;9.192;2024-03-02T01:28:29;9.80;52.60
10300;DHT22;5195;48.562;9.192;2024-03-02T01:31:05;9.00;53.80
10300;DHT22;5195;48.562;9.192;2024-03-02T01:33:40;9.00;53.80
10300;DHT22;5195;48.562;9.192;2024-03-02T01:36:16;8.80;54.30
10300;DHT22;5195;48.562;9.192;2024-03-02T01:38:52;8.40;55.00
10300;DHT22;5195;48.562;9.192;2024-03-02T01:41:28;8.30;54.90
10300;DHT22;5195;48.562;9.192;2024-03-02T01:44:04;8.20;55.20
10300;DHT22;5195;48.562;9.192;2024-03-02T01:46:39;8.10;55.40
10300;DHT22;5195;48.562;9.192;2024-03-02T01:49:15;8.00;55.60
10300;DHT22;5195;48.562;9.192;2024-03-02T01:51:52;8.20;56.00
10300;DHT22;5195;48.562;9.192;2024-03-02T01:54:27;8.20;55.50
10300;DHT22;5195;48.562;9.192;2024-03-02T01:57:03;8.10;55.70
10300;DHT22;5195;48.562;9.192;2024-03-02T01:59:40;8.60;54.80
10300;DHT22;5195;48.562;9.192;2024-03-02T02:02:17;8.60;55.10
10300;DHT22;5195;48.562;9.192;2024-03-02T02:04:53;8.50;54.80
10300;DHT22;5195;48.562;9.192;2024-03-02T02:07:29;8.30;55.20
10300;DHT22;5195;48.562;9.192;2024-03-02T02:10:05;8.30;55.30
10300;DHT22;5195;48.562;9.192;2024-03-02T02:12:43;8.60;54.80
10300;DHT22;5195;48.562;9.192;2024-03-02T02:15:26;8.20;55.00
10300;DHT22;5195;48.562;9.192;2024-03-02T02:18:01;8.20;55.00
10300;DHT22;5195;48.562;9.192;2024-03-02T02:20:37;8.10;55.80
10300;DHT22;5195;48.562;9.192;2024-03-02T02:23:14;8.00;55.60
10300;DHT22;5195;48.562;9.192;2024-03-02T02:25:50;8.40;55.30
10300;DHT22;5195;48.562;9.192;2024-03-02T02:28:26;8.00;55.30
10300;DHT22;5195;48.562;9.192;2024-03-02T02:31:02;8.00;55.30
10300;DHT22;5195;48.562;9.192;2024-03-02T02:33:39;8.10;55.70
10300;DHT22;5195;48.562;9.192;2024-03-02T02:36:13;8.40;55.40
10300;DHT22;5195;48.562;9.192;2024-03-02T02:38:49;8.40;55.30
10300;DHT22;5195;48.562;9.192;2024-03-02T02:41:26;8.60;54.90
10300;DHT22;5195;48.562;9.192;2024-03-02T02:44:01;8.60;54.90
10300;DHT22;5195;48.562;9.192;2024-03-02T02:46:37;8.50;54.80
10300;DHT22;5195;48.562;9.192;2024-03-02T02:49:12;8.50;54.90
10300;DHT22;5195;48.562;9.192;2024-03-02T02:51:48;8.40;54.90
10300;DHT22;5195;48.562;9.192;2024-03-02T02:54:24;8.10;55.30
10300;DHT22;5195;48.562;9.192;2024-03-02T02:57:00;8.10;55.10
10300;DHT22;5195;48.562;9.192;2024-03-02T02:59:36;8.10;55.10
10300;DHT22;5195;48.562;9.192;2024-03-02T03:02:11;7.80;55.40
10300;DHT22;5195;48.562;9.192;2024-03-02T03:04:47;7.40;56.10
10300;DHT22;5195;48.562;9.192;2024-03-02T03:07:23;7.40;56.10
10300;DHT22;5195;48.562;9.192;2024-03-02T03:10:01;7.10;56.70
10300;DHT22;5195;48.562;9.192;2024-03-02T03:12:37;7.10;56.40
10300;DHT22;5195;48.562;9.192;2024-03-02T03:15:13;7.30;56.40
10300;DHT22;5195;48.562;9.192;2024-03-02T03:17:49;7.70;55.70
10300;DHT22;5195;48.562;9.192;2024-03-02T03:20:24;7.70;55.30
10300;DHT22;5195;48.562;9.192;2024-03-02T03:23:01;7.60;54.80
10300;DHT22;5195;48.562;9.192;2024-03-02T03:25:37;7.60;54.80
10300;DHT22;5195;48.562;9.192;2024-03-02T03:28:13;7.70;55.10
10300;DHT22;5195;48.562;9.192;2024-03-02T03:30:49;8.10;54.30
10300;DHT22;5195;48.562;9.192;2024-03-02T03:33:25;8.10;54.30
10300;DHT22;5195;48.562;9.192;2024-03-02T03:36:00;7.90;54.30
10300;DHT22;5195;48.562;9.192;2024-03-02T03:38:36;7.50;54.80
10300;DHT22;5195;48.562;9.192;2024-03-02T03:41:12;7.60;55.20
10300;DHT22;5195;48.562;9.192;2024-03-02T03:43:47;7.50;55.00
10300;DHT22;5195;48.562;9.192;2024-03-02T03:46:23;7.50;55.20
10300;DHT22;5195;48.562;9.192;2024-03-02T03:48:59;7.50;55.70
10300;DHT22;5195;48.562;9.192;2024-03-02T03:51:35;7.50;55.70
10300;DHT22;5195;48.562;9.192;2024-03-02T03:54:11;7.10;55.90
10300;DHT22;5195;48.562;9.192;2024-03-02T03:56:47;7.10;55.80
10300;DHT22;5195;48.562;9.192;2024-03-02T03:59:22;6.90;56.10
10300;DHT22;5195;48.562;9.192;2024-03-02T04:01:58;6.70;56.40
10300;DHT22;5195;48.562;9.192;2024-03-02T04:04:33;6.90;56.70
10300;DHT22;5195;48.562;9.192;2024-03-02T04:07:09;6.90;56.30
10300;DHT22;5195;48.562;9.192;2024-03-02T04:09:45;7.00;57.20
10300;DHT22;5195;48.562;9.192;2024-03-02T04:12:24;7.00;57.20
10300;DHT22;5195;48.562;9.192;2024-03-02T04:14:59;7.30;56.20
10300;DHT22;5195;48.562;9.192;2024-03-02T04:17:35;7.30;55.90
10300;DHT22;5195;48.562;9.192;2024-03-02T04:20:11;7.30;56.00
10300;DHT22;5195;48.562;9.192;2024-03-02T04:22:47;7.30;56.20
10300;DHT22;5195;48.562;9.192;2024-03-02T04:25:22;7.30;56.10
10300;DHT22;5195;48.562;9.192;2024-03-02T04:27:59;7.40;56.30
10300;DHT22;5195;48.562;9.192;2024-03-02T04:41:28;8.10;55.00
10300;DHT22;5195;48.562;9.192;2024-03-02T04:43:53;7.90;55.10
10300;DHT22;5195;48.562;9.192;2024-03-02T04:46:19;7.30;56.60
10300;DHT22;5195;48.562;9.192;2024-03-02T04:48:45;7.30;56.00
10300;DHT22;5195;48.562;9.192;2024-03-02T04:51:11;7.40;56.50
10300;DHT22;5195;48.562;9.192;2024-03-02T04:53:37;7.60;55.90
10300;DHT22;5195;48.562;9.192;2024-03-02T04:56:03;7.60;55.90
10300;DHT22;5195;48.562;9.192;2024-03-02T04:58:45;7.50;57.00
10300;DHT22;5195;48.562;9.192;2024-03-02T05:01:11;7.50;56.40
10300;DHT22;5195;48.562;9.192;2024-03-02T05:03:37;7.70;56.20
10300;DHT22;5195;48.562;9.192;2024-03-02T05:06:04;7.60;55.90
10300;DHT22;5195;48.562;9.192;2024-03-02T05:08:29;7.40;56.30
10300;DHT22;5195;48.562;9.192;2024-03-02T05:11:05;7.10;56.70
10300;DHT22;5195;48.562;9.192;2024-03-02T05:13:44;6.90;57.10
10300;DHT22;5195;48.562;9.192;2024-03-02T05:16:20;7.50;57.20
10300;DHT22;5195;48.562;9.192;2024-03-02T05:18:56;7.50;57.10
10300;DHT22;5195;48.562;9.192;2024-03-02T05:21:32;7.70;56.50
10300;DHT22;5195;48.562;9.192;2024-03-02T05:24:08;7.70;56.40
10300;DHT22;5195;48.562;9.192;2024-03-02T05:26:43;7.40;56.80
10300;DHT22;5195;48.562;9.192;2024-03-02T05:29:19;7.20;57.30
10300;DHT22;5195;48.562;9.192;2024-03-02T05:31:55;7.30;57.60
10300;DHT22;5195;48.562;9.192;2024-03-02T05:34:30;7.30;57.30
10300;DHT22;5195;48.562;9.192;2024-03-02T05:37:06;7.40;57.50
10300;DHT22;5195;48.562;9.192;2024-03-02T05:39:41;7.80;56.80
10300;DHT22;5195;48.562;9.192;2024-03-02T05:42:18;7.90;55.90
10300;DHT22;5195;48.562;9.192;2024-03-02T05:44:53;7.80;55.80
10300;DHT22;5195;48.562;9.192;2024-03-02T05:47:29;7.50;56.30
10300;DHT22;5195;48.562;9.192;2024-03-02T05:50:05;7.60;56.60
10300;DHT22;5195;48.562;9.192;2024-03-02T05:52:40;7.80;55.90
10300;DHT22;5195;48.562;9.192;2024-03-02T05:55:16;7.70;55.60
10300;DHT22;5195;48.562;9.192;2024-03-02T05:57:51;7.70;55.70
10300;DHT22;5195;48.562;9.192;2024-03-02T06:00:27;7.90;55.40
10300;DHT22;5195;48.562;9.192;2024-03-02T06:03:03;8.10;54.90
10300;DHT22;5195;48.562;9.192;2024-03-02T06:05:38;7.90;54.90
10300;DHT22;5195;48.562;9.192;2024-03-02T06:08:14;7.60;55.50
10300;DHT22;5195;48.562;9.192;2024-03-02T06:10:49;7.60;55.90
10300;DHT22;5195;48.562;9.192;2024-03-02T06:13:25;7.50;55.90
10300;DHT22;5195;48.562;9.192;2024-03-02T06:16:01;7.60;56.30
10300;DHT22;5195;48.562;9.192;2024-03-02T06:18:36;7.50;56.10
10300;DHT22;5195;48.562;9.192;2024-03-02T06:21:12;7.30;56.50
10300;DHT22;5195;48.562;9.192;2024-03-02T06:23:47;7.10;56.90
10300;DHT22;5195;48.562;9.192;2024-03-02T06:26:23;7.00;57.30
10300;DHT22;5195;48.562;9.192;2024-03-02T06:28:59;6.80;57.50
10300;DHT22;5195;48.562;9.192;2024-03-02T06:31:34;6.80;57.80
10300;DHT22;5195;48.562;9.192;2024-03-02T06:34:11;6.70;58.20
10300;DHT22;5195;48.562;9.192;2024-03-02T06:36:46;6.70;58.10
10300;DHT22;5195;48.562;9.192;2024-03-02T06:39:22;7.00;58.40
10300;DHT22;5195;48.562;9.192;2024-03-02T06:42:00;7.90;57.00
10300;DHT22;5195;48.562;9.192;2024-03-02T06:44:35;7.90;57.00
10300;DHT22;5195;48.562;9.192;2024-03-02T06:47:11;8.20;56.40
10300;DHT22;5195;48.562;9.192;2024-03-02T06:49:46;8.50;55.80
10300;DHT22;5195;48.562;9.192;2024-03-02T06:52:22;8.40;55.70
10300;DHT22;5195;48.562;9.192;2024-03-02T06:54:57;8.20;56.20
10300;DHT22;5195;48.562;9.192;2024-03-02T06:57:33;8.30;56.20
10300;DHT22;5195;48.562;9.192;2024-03-02T07:00:10;8.60;55.90
10300;DHT22;5195;48.562;9.192;2024-03-02T07:02:47;9.20;54.90
10300;DHT22;5195;48.562;9.192;2024-03-02T07:05:23;9.20;54.90
10300;DHT22;5195;48.562;9.192;2024-03-02T07:07:59;9.50;54.00
10300;DHT22;5195;48.562;9.192;2024-03-02T07:10:34;9.40;54.80
10300;DHT22;5195;48.562;9.192;2024-03-02T07:13:10;9.10;54.70
10300;DHT22;5195;48.562;9.192;2024-03-02T07:15:46;9.30;55.10
10300;DHT22;5195;48.562;9.192;2024-03-02T07:18:51;9.30;55.10
10300;DHT22;5195;48.562;9.192;2024-03-02T07:21:27;9.60;54.60
10300;DHT22;5195;48.562;9.192;2024-03-02T07:24:03;9.70;54.60
10300;DHT22;5195;48.562;9.192;2024-03-02T07:26:39;9.60;55.20
10300;DHT22;5195;48.562;9.192;2024-03-02T07:29:15;9.70;55.20
10300;DHT22;5195;48.562;9.192;2024-03-02T07:31:51;9.70;55.40
10300;DHT22;5195;48.562;9.192;2024-03-02T07:34:27;9.70;55.40
10300;DHT22;5195;48.562;9.192;2024-03-02T07:37:03;10.00;52.90
10300;DHT22;5195;48.562;9.192;2024-03-02T07:39:39;10.40;51.30
10300;DHT22;5195;48.562;9.192;2024-03-02T07:42:14;10.40;51.10
10300;DHT22;5195;48.562;9.192;2024-03-02T07:44:52;10.30;51.60
10300;DHT22;5195;48.562;9.192;2024-03-02T07:47:29;10.40;50.80
10300;DHT22;5195;48.562;9.192;2024-03-02T07:50:06;10.30;50.70
10300;DHT22;5195;48.562;9.192;2024-03-02T07:52:43;10.50;50.10
10300;DHT22;5195;48.562;9.192;2024-03-02T07:55:19;10.80;49.60
10300;DHT22;5195;48.562;9.192;2024-03-02T07:57:55;10.70;49.70
10300;DHT22;5195;48.562;9.192;2024-03-02T08:00:32;10.80;49.10
10300;DHT22;5195;48.562;9.192;2024-03-02T08:03:07;10.60;49.30
10300;DHT22;5195;48.562;9.192;2024-03-02T08:05:43;10.40;49.90
10300;DHT22;5195;48.562;9.192;2024-03-02T08:08:18;10.30;50.50
10300;DHT22;5195;48.562;9.192;2024-03-02T08:10:54;10.40;49.60
10300;DHT22;5195;48.562;9.192;2024-03-02T08:13:30;10.50;49.70
10300;DHT22;5195;48.562;9.192;2024-03-02T08:16:05;10.70;49.60
10300;DHT22;5195;48.562;9.192;2024-03-02T08:18:41;11.10;48.90
10300;DHT22;5195;48.562;9.192;2024-03-02T08:21:16;11.20;49.30
10300;DHT22;5195;48.562;9.192;2024-03-02T08:23:52;11.40;48.80
10300;DHT22;5195;48.562;9.192;2024-03-02T08:26:28;11.80;47.20
10300;DHT22;5195;48.562;9.192;2024-03-02T08:29:06;11.90;47.50
10300;DHT22;5195;48.562;9.192;2024-03-02T08:31:42;12.10;46.60
10300;DHT22;5195;48.562;9.192;2024-03-02T08:34:17;12.10;46.90
10300;DHT22;5195;48.562;9.192;2024-03-02T08:36:53;12.00;47.50
10300;DHT22;5195;48.562;9.192;2024-03-02T08:39:29;11.90;48.10
10300;DHT22;5195;48.562;9.192;2024-03-02T08:42:04;12.10;47.30
10300;DHT22;5195;48.562;9.192;2024-03-02T08:44:41;12.20;47.80
10300;DHT22;5195;48.562;9.192;2024-03-02T08:47:16;12.20;47.80
10300;DHT22;5195;48.562;9.192;2024-03-02T08:49:53;12.70;48.00
10300;DHT22;5195;48.562;9.192;2024-03-02T08:52:28;12.70;47.90
10300;DHT22;5195;48.562;9.192;2024-03-02T08:55:04;12.80;48.20
10300;DHT22;5195;48.562;9.192;2024-03-02T08:57:40;12.70;48.60
10300;DHT22;5195;48.562;9.192;2024-03-02T09:00:15;12.80;48.50
10300;DHT22;5195;48.562;9.192;2024-03-02T09:02:52;13.40;47.10
10300;DHT22;5195;48.562;9.192;2024-03-02T09:05:27;13.30;47.00
10300;DHT22;5195;48.562;9.192;2024-03-02T09:08:03;13.60;46.80
10300;DHT22;5195;48.562;9.192;2024-03-02T09:10:38;13.60;47.00
10300;DHT22;5195;48.562;9.192;2024-03-02T09:13:15;13.60;47.40
10300;DHT22;5195;48.562;9.192;2024-03-02T09:15:51;13.60;47.30
10300;DHT22;5195;48.562;9.192;2024-03-02T09:18:26;13.40;47.70
10300;DHT22;5195;48.562;9.192;2024-03-02T09:21:02;13.30;47.80
10300;DHT22;5195;48.562;9.192;2024-03-02T09:23:38;13.10;48.30
10300;DHT22;5195;48.562;9.192;2024-03-02T09:26:14;13.10;48.30
10300;DHT22;5195;48.562;9.192;2024-03-02T09:28:49;13.20;48.50
10300;DHT22;5195;48.562;9.192;2024-03-02T09:31:25;13.30;49.20
10300;DHT22;5195;48.562;9.192;2024-03-02T09:34:01;13.20;48.50
10300;DHT22;5195;48.562;9.192;2024-03-02T09:36:36;13.60;47.10
10300;DHT22;5195;48.562;9.192;2024-03-02T09:39:12;14.10;45.50
10300;DHT22;5195;48.562;9.192;2024-03-02T09:41:48;14.60;44.70
10300;DHT22;5195;48.562;9.192;2024-03-02T09:44:23;14.60;44.90
10300;DHT22;5195;48.562;9.192;2024-03-02T09:46:59;14.80;43.80
10300;DHT22;5195;48.562;9.192;2024-03-02T09:49:34;14.90;44.20
10300;DHT22;5195;48.562;9.192;2024-03-02T09:52:10;14.80;44.90
10300;DHT22;5195;48.562;9.192;2024-03-02T09:54:47;14.70;45.30
10300;DHT22;5195;48.562;9.192;2024-03-02T09:57:21;15.00;43.60
10300;DHT22;5195;48.562;9.192;2024-03-02T09:59:57;15.10;44.10
10300;DHT22;5195;48.562;9.192;2024-03-02T10:02:32;15.40;43.70
10300;DHT22;5195;48.562;9.192;2024-03-02T10:05:09;15.70;42.80
10300;DHT22;5195;48.562;9.192;2024-03-02T10:07:49;15.70;42.80
10300;DHT22;5195;48.562;9.192;2024-03-02T10:10:21;16.00;42.30
10300;DHT22;5195;48.562;9.192;2024-03-02T10:13:07;16.00;42.20
10300;DHT22;5195;48.562;9.192;2024-03-02T10:15:42;16.10;42.60
10300;DHT22;5195;48.562;9.192;2024-03-02T10:18:18;15.90;42.90
10300;DHT22;5195;48.562;9.192;2024-03-02T10:20:54;15.80;43.30
10300;DHT22;5195;48.562;9.192;2024-03-02T10:23:30;15.70;43.60
10300;DHT22;5195;48.562;9.192;2024-03-02T10:26:18;15.90;42.10
10300;DHT22;5195;48.562;9.192;2024-03-02T10:28:54;16.30;42.40
10300;DHT22;5195;48.562;9.192;2024-03-02T10:31:30;17.00;41.30
10300;DHT22;5195;48.562;9.192;2024-03-02T10:34:06;17.00;41.30
10300;DHT22;5195;48.562;9.192;2024-03-02T10:36:42;17.00;41.50
10300;DHT22;5195;48.562;9.192;2024-03-02T10:39:17;16.60;43.20
10300;DHT22;5195;48.562;9.192;2024-03-02T10:41:53;16.50;42.40
10300;DHT22;5195;48.562;9.192;2024-03-02T10:44:29;16.70;41.10
10300;DHT22;5195;48.562;9.192;2024-03-02T10:47:05;16.90;41.00
10300;DHT22;5195;48.562;9.192;2024-03-02T10:49:40;17.20;40.00
10300;DHT22;5195;48.562;9.192;2024-03-02T10:52:15;17.50;39.50
10300;DHT22;5195;48.562;9.192;2024-03-02T10:54:51;17.50;39.50
10300;DHT22;5195;48.562;9.192;2024-03-02T10:57:27;17.50;39.10
10300;DHT22;5195;48.562;9.192;2024-03-02T11:00:04;17.50;39.60
10300;DHT22;5195;48.562;9.192;2024-03-02T11:02:46;17.50;38.20
10300;DHT22;5195;48.562;9.192;2024-03-02T11:05:28;17.70;37.50
10300;DHT22;5195;48.562;9.192;2024-03-02T11:08:07;17.70;38.30
10300;DHT22;5195;48.562;9.192;2024-03-02T11:10:48;17.50;39.10
10300;DHT22;5195;48.562;9.192;2024-03-02T11:13:27;17.50;39.20
10300;DHT22;5195;48.562;9.192;2024-03-02T11:16:04;17.40;39.10
10300;DHT22;5195;48.562;9.192;2024-03-02T11:18:39;17.60;38.50
10300;DHT22;5195;48.562;9.192;2024-03-02T11:21:15;17.80;39.00
10300;DHT22;5195;48.562;9.192;2024-03-02T11:23:50;17.80;39.30
10300;DHT22;5195;48.562;9.192;2024-03-02T11:26:26;17.70;39.70
10300;DHT22;5195;48.562;9.192;2024-03-02T11:29:01;17.70;39.40
10300;DHT22;5195;48.562;9.192;2024-03-02T11:31:57;17.70;39.40
10300;DHT22;5195;48.562;9.192;2024-03-02T11:34:36;17.70;38.20
10300;DHT22;5195;48.562;9.192;2024-03-02T11:37:12;17.60;38.80
10300;DHT22;5195;48.562;9.192;2024-03-02T11:39:48;17.50;39.40
10300;DHT22;5195;48.562;9.192;2024-03-02T11:42:25;17.20;40.50
10300;DHT22;5195;48.562;9.192;2024-03-02T11:45:01;17.20;39.80
10300;DHT22;5195;48.562;9.192;2024-03-02T11:47:37;17.60;37.40
10300;DHT22;5195;48.562;9.192;2024-03-02T11:50:13;17.70;37.50
10300;DHT22;5195;48.562;9.192;2024-03-02T11:52:48;17.60;37.70
10300;DHT22;5195;48.562;9.192;2024-03-02T11:55:26;17.40;38.10
10300;DHT22;5195;48.562;9.192;2024-03-02T11:58:01;17.40;38.80
10300;DHT22;5195;48.562;9.192;2024-03-02T12:00:36;17.30;38.70
10300;DHT22;5195;48.562;9.192;2024-03-02T12:03:13;17.40;38.90
10300;DHT22;5195;48.562;9.192;2024-03-02T12:05:55;17.60;38.40
10300;DHT22;5195;48.562;9.192;2024-03-02T12:08:30;17.80;39.10
10300;DHT22;5195;48.562;9.192;2024-03-02T12:11:06;18.00;37.70
10300;DHT22;5195;48.562;9.192;2024-03-02T12:13:41;18.20;37.10
10300;DHT22;5195;48.562;9.192;2024-03-02T12:16:25;18.50;36.80
10300;DHT22;5195;48.562;9.192;2024-03-02T12:19:00;18.60;34.40
10300;DHT22;5195;48.562;9.192;2024-03-02T12:21:36;18.40;35.00
10300;DHT22;5195;48.562;9.192;2024-03-02T12:24:13;18.40;35.20
10300;DHT22;5195;48.562;9.192;2024-03-02T12:26:49;18.30;35.30
10300;DHT22;5195;48.562;9.192;2024-03-02T12:29:24;18.10;36.00
10300;DHT22;5195;48.562;9.192;2024-03-02T12:31:59;18.20;35.30
10300;DHT22;5195;48.562;9.192;2024-03-02T12:34:35;18.50;35.40
10300;DHT22;5195;48.562;9.192;2024-03-02T12:37:12;18.20;35.70
10300;DHT22;5195;48.562;9.192;2024-03-02T12:39:47;18.20;35.70
10300;DHT22;5195;48.562;9.192;2024-03-02T12:42:26;18.00;35.90
10300;DHT22;5195;48.562;9.192;2024-03-02T12:44:59;18.30;34.10
10300;DHT22;5195;48.562;9.192;2024-03-02T12:47:34;18.30;34.10
10300;DHT22;5195;48.562;9.192;2024-03-02T12:50:11;18.40;34.10
10300;DHT22;5195;48.562;9.192;2024-03-02T12:52:53;18.40;34.20
10300;DHT22;5195;48.562;9.192;2024-03-02T12:55:29;18.40;34.20
10300;DHT22;5195;48.562;9.192;2024-03-02T12:58:04;18.30;34.30
10300;DHT22;5195;48.562;9.192;2024-03-02T13:00:40;18.40;34.20
10300;DHT22;5195;48.562;9.192;2024-03-02T13:03:17;18.50;33.40
10300;DHT22;5195;48.562;9.192;2024-03-02T13:05:52;18.40;33.30
10300;DHT22;5195;48.562;9.192;2024-03-02T13:08:27;18.50;33.20
10300;DHT22;5195;48.562;9.192;2024-03-02T13:11:03;18.40;33.90
10300;DHT22;5195;48.562;9.192;2024-03-02T13:13:39;18.40;33.00
10300;DHT22;5195;48.562;9.192;2024-03-02T13:16:14;18.30;33.40
10300;DHT22;5195;48.562;9.192;2024-03-02T13:18:50;18.10;33.80
10300;DHT22;5195;48.562;9.192;2024-03-02T13:21:25;18.10;33.10
10300;DHT22;5195;48.562;9.192;2024-03-02T13:24:02;18.50;32.50
10300;DHT22;5195;48.562;9.192;2024-03-02T13:26:37;18.50;32.50
10300;DHT22;5195;48.562;9.192;2024-03-02T13:29:13;18.40;33.10
10300;DHT22;5195;48.562;9.192;2024-03-02T13:31:48;18.10;33.50
10300;DHT22;5195;48.562;9.192;2024-03-02T13:34:25;17.70;34.30
10300;DHT22;5195;48.562;9.192;2024-03-02T13:37:00;17.70;34.30
10300;DHT22;5195;48.562;9.192;2024-03-02T13:39:37;17.80;34.40
10300;DHT22;5195;48.562;9.192;2024-03-02T13:42:12;17.80;33.70
10300;DHT22;5195;48.562;9.192;2024-03-02T13:44:48;17.90;33.70
10300;DHT22;5195;48.562;9.192;2024-03-02T13:47:25;17.90;33.70
10300;DHT22;5195;48.562;9.192;2024-03-02T13:50:01;17.80;33.80
10300;DHT22;5195;48.562;9.192;2024-03-02T13:52:36;17.80;33.10
10300;DHT22;5195;48.562;9.192;2024-03-02T13:55:12;18.10;32.40
10300;DHT22;5195;48.562;9.192;2024-03-02T13:57:48;18.30;32.00
10300;DHT22;5195;48.562;9.192;2024-03-02T14:00:23;18.20;32.70
10300;DHT22;5195;48.562;9.192;2024-03-02T14:02:59;17.90;33.20
10300;DHT22;5195;48.562;9.192;2024-03-02T14:05:34;17.60;33.70
10300;DHT22;5195;48.562;9.192;2024-03-02T14:08:10;17.40;33.90
10300;DHT22;5195;48.562;9.192;2024-03-02T14:10:46;17.20;34.20
10300;DHT22;5195;48.562;9.192;2024-03-02T14:13:21;17.30;33.10
10300;DHT22;5195;48.562;9.192;2024-03-02T14:15:57;17.60;33.70
10300;DHT22;5195;48.562;9.192;2024-03-02T14:18:33;17.50;33.60
10300;DHT22;5195;48.562;9.192;2024-03-02T14:21:09;17.40;34.10
10300;DHT22;5195;48.562;9.192;2024-03-02T14:23:45;17.30;33.60
10300;DHT22;5195;48.562;9.192;2024-03-02T14:26:21;17.30;33.60
10300;DHT22;5195;48.562;9.192;2024-03-02T14:28:56;17.40;34.40
10300;DHT22;5195;48.562;9.192;2024-03-02T14:31:32;17.50;32.30
10300;DHT22;5195;48.562;9.192;2024-03-02T14:34:07;17.50;32.60
10300;DHT22;5195;48.562;9.192;2024-03-02T14:36:43;17.60;32.40
10300;DHT22;5195;48.562;9.192;2024-03-02T14:39:19;17.60;32.70
10300;DHT22;5195;48.562;9.192;2024-03-02T14:41:54;17.70;32.50
10300;DHT22;5195;48.562;9.192;2024-03-02T14:44:30;17.90;31.60
10300;DHT22;5195;48.562;9.192;2024-03-02T14:47:06;18.30;30.90
10300;DHT22;5195;48.562;9.192;2024-03-02T14:49:43;18.30;30.90
10300;DHT22;5195;48.562;9.192;2024-03-02T14:52:18;18.10;30.60
10300;DHT22;5195;48.562;9.192;2024-03-02T14:54:54;18.10;31.00
10300;DHT22;5195;48.562;9.192;2024-03-02T14:57:29;18.20;30.00
10300;DHT22;5195;48.562;9.192;2024-03-02T15:00:05;18.40;30.00
10300;DHT22;5195;48.562;9.192;2024-03-02T15:02:42;18.50;30.90
10300;DHT22;5195;48.562;9.192;2024-03-02T15:05:17;18.50;29.90
10300;DHT22;5195;48.562;9.192;2024-03-02T15:07:54;18.30;30.60
10300;DHT22;5195;48.562;9.192;2024-03-02T15:10:29;18.30;30.50
10300;DHT22;5195;48.562;9.192;2024-03-02T15:13:06;17.80;30.10
10300;DHT22;5195;48.562;9.192;2024-03-02T15:15:41;17.80;30.10
10300;DHT22;5195;48.562;9.192;2024-03-02T15:18:18;17.30;31.10
10300;DHT22;5195;48.562;9.192;2024-03-02T15:20:53;17.40;31.20
10300;DHT22;5195;48.562;9.192;2024-03-02T15:23:29;17.00;31.40
10300;DHT22;5195;48.562;9.192;2024-03-02T15:26:04;16.80;31.50
10300;DHT22;5195;48.562;9.192;2024-03-02T15:28:40;16.90;30.70
10300;DHT22;5195;48.562;9.192;2024-03-02T15:31:15;17.10;30.00
10300;DHT22;5195;48.562;9.192;2024-03-02T15:33:52;17.30;29.60
10300;DHT22;5195;48.562;9.192;2024-03-02T15:36:28;17.20;29.80
10300;DHT22;5195;48.562;9.192;2024-03-02T15:39:03;16.90;30.00
10300;DHT22;5195;48.562;9.192;2024-03-02T15:41:40;16.30;30.70
10300;DHT22;5195;48.562;9.192;2024-03-02T15:44:18;16.30;30.70
10300;DHT22;5195;48.562;9.192;2024-03-02T15:46:54;16.10;30.90
10300;DHT22;5195;48.562;9.192;2024-03-02T15:49:29;16.30;31.60
10300;DHT22;5195;48.562;9.192;2024-03-02T15:52:05;16.30;31.10
10300;DHT22;5195;48.562;9.192;2024-03-02T15:54:41;16.10;31.30
10300;DHT22;5195;48.562;9.192;2024-03-02T15:57:16;15.90;31.70
10300;DHT22;5195;48.562;9.192;2024-03-02T15:59:52;16.10;31.80
10300;DHT22;5195;48.562;9.192;2024-03-02T16:02:27;16.30;31.00
10300;DHT22;5195;48.562;9.192;2024-03-02T16:05:03;16.60;30.50
10300;DHT22;5195;48.562;9.192;2024-03-02T16:07:39;16.70;30.20
10300;DHT22;5195;48.562;9.192;2024-03-02T16:10:14;16.60;30.60
10300;DHT22;5195;48.562;9.192;2024-03-02T16:12:50;16.20;31.10
10300;DHT22;5195;48.562;9.192;2024-03-02T16:15:29;15.90;31.70
10300;DHT22;5195;48.562;9.192;2024-03-02T16:18:05;16.00;32.30
10300;DHT22;5195;48.562;9.192;2024-03-02T16:20:40;16.20;32.60
10300;DHT22;5195;48.562;9.192;2024-03-02T16:23:16;16.20;33.00
10300;DHT22;5195;48.562;9.192;2024-03-02T16:25:53;16.20;33.00
10300;DHT22;5195;48.562;9.192;2024-03-02T16:28:30;15.60;34.30
10300;DHT22;5195;48.562;9.192;2024-03-02T16:31:05;15.60;34.30
10300;DHT22;5195;48.562;9.192;2024-03-02T16:33:41;15.70;36.10
10300;DHT22;5195;48.562;9.192;2024-03-02T16:36:16;15.60;35.90
10300;DHT22;5195;48.562;9.192;2024-03-02T16:38:54;15.40;36.10
10300;DHT22;5195;48.562;9.192;2024-03-02T16:41:29;15.50;37.50
10300;DHT22;5195;48.562;9.192;2024-03-02T16:44:05;15.40;37.10
10300;DHT22;5195;48.562;9.192;2024-03-02T16:46:40;15.50;38.10
10300;DHT22;5195;48.562;9.192;2024-03-02T16:49:16;15.40;37.80
10300;DHT22;5195;48.562;9.192;2024-03-02T16:51:51;15.20;38.00
10300;DHT22;5195;48.562;9.192;2024-03-02T16:54:27;15.30;40.00
10300;DHT22;5195;48.562;9.192;2024-03-02T16:57:03;15.20;39.60
10300;DHT22;5195;48.562;9.192;2024-03-02T16:59:45;15.50;42.20